sensor_id;sensor_type;location;lat;lon;timestamp;P1;durP1;ratioP1;P2;durP2;ratioP2
20476;SDS011;10397;50.948;11.092;2023-08-06T00:01:11;4.70;;;0.75;;
20476;SDS011;10397;50.948;11.092;2023-08-06T00:03:43;1.67;;;1.00;;
20476;SDS011;10397;50.948;11.092;2023-08-06T00:06:14;1.20;;;0.75;;
20476;SDS011;10397;50.948;11.092;2023-08-06T00:08:45;2.07;;;0.70;;
20476;SDS011;10397;50.948;11.092;2023-08-06T00:11:16;2.50;;;0.72;;
20476;SDS011;10397;50.948;11.092;2023-08-06T00:13:47;0.80;;;0.60;;
20476;SDS011;10397;50.948;11.092;2023-08-06T00:16:18;2.77;;;0.80;;
20476;SDS011;10397;50.948;11.092;2023-08-06T00:18:50;1.57;;;0.72;;
20476;SDS011;10397;50.948;11.092;2023-08-06T00:21:21;0.90;;;0.57;;
20476;SDS011;10397;50.948;11.092;2023-08-06T00:23:52;3.15;;;0.80;;
20476;SDS011;10397;50.948;11.092;2023-08-06T00:26:23;1.17;;;0.80;;
20476;SDS011;10397;50.948;11.092;2023-08-06T00:28:54;3.35;;;0.68;;
20476;SDS011;10397;50.948;11.092;2023-08-06T00:31:25;0.80;;;0.50;;
20476;SDS011;10397;50.948;11.092;2023-08-06T00:33:57;2.62;;;0.70;;
20476;SDS011;10397;50.948;11.092;2023-08-06T00:36:28;1.43;;;0.80;;
20476;SDS011;10397;50.948;11.092;2023-08-06T00:38:59;1.42;;;0.60;;
20476;SDS011;10397;50.948;11.092;2023-08-06T00:41:29;0.80;;;0.60;;
20476;SDS011;10397;50.948;11.092;2023-08-06T00:44:01;1.10;;;0.70;;
20476;SDS011;10397;50.948;11.092;2023-08-06T00:46:32;1.00;;;0.60;;
20476;SDS011;10397;50.948;11.092;2023-08-06T00:49:04;0.80;;;0.70;;
20476;SDS011;10397;50.948;11.092;2023-08-06T00:51:34;0.93;;;0.60;;
20476;SDS011;10397;50.948;11.092;2023-08-06T00:54:05;1.20;;;0.88;;
20476;SDS011;10397;50.948;11.092;2023-08-06T00:56:37;1.00;;;0.80;;
20476;SDS011;10397;50.948;11.092;2023-08-06T00:59:08;1.52;;;0.80;;
20476;SDS011;10397;50.948;11.092;2023-08-06T01:01:39;0.75;;;0.60;;
20476;SDS011;10397;50.948;11.092;2023-08-06T01:04:10;2.35;;;0.88;;
20476;SDS011;10397;50.948;11.092;2023-08-06T01:10:01;1.52;;;0.70;;
20476;SDS011;10397;50.948;11.092;2023-08-06T01:17:33;1.23;;;0.60;;
20476;SDS011;10397;50.948;11.092;2023-08-06T01:20:04;1.87;;;0.62;;
20476;SDS011;10397;50.948;11.092;2023-08-06T01:22:34;1.57;;;0.80;;
20476;SDS011;10397;50.948;11.092;2023-08-06T01:25:05;4.25;;;1.07;;
20476;SDS011;10397;50.948;11.092;2023-08-06T01:27:38;0.98;;;0.72;;
20476;SDS011;10397;50.948;11.092;2023-08-06T01:30:14;1.13;;;0.70;;
20476;SDS011;10397;50.948;11.092;2023-08-06T01:32:44;3.27;;;0.95;;
20476;SDS011;10397;50.948;11.092;2023-08-06T01:35:15;1.23;;;0.60;;
20476;SDS011;10397;50.948;11.092;2023-08-06T01:37:45;3.57;;;0.80;;
20476;SDS011;10397;50.948;11.092;2023-08-06T01:40:16;1.05;;;0.70;;
20476;SDS011;10397;50.948;11.092;2023-08-06T01:42:46;3.20;;;0.70;;
20476;SDS011;10397;50.948;11.092;2023-08-06T01:45:17;1.50;;;0.70;;
20476;SDS011;10397;50.948;11.092;2023-08-06T01:47:48;2.47;;;0.65;;
20476;SDS011;10397;50.948;11.092;2023-08-06T01:50:20;1.00;;;0.80;;
20476;SDS011;10397;50.948;11.092;2023-08-06T01:52:51;1.98;;;0.60;;
20476;SDS011;10397;50.948;11.092;2023-08-06T01:55:21;1.23;;;0.90;;
20476;SDS011;10397;50.948;11.092;2023-08-06T01:57:53;2.22;;;0.70;;
20476;SDS011;10397;50.948;11.092;2023-08-06T02:00:24;0.70;;;0.70;;
20476;SDS011;10397;50.948;11.092;2023-08-06T02:02:56;1.67;;;0.90;;
20476;SDS011;10397;50.948;11.092;2023-08-06T02:05:27;0.93;;;0.57;;
20476;SDS011;10397;50.948;11.092;2023-08-06T02:07:58;1.85;;;0.88;;
20476;SDS011;10397;50.948;11.092;2023-08-06T02:10:30;1.30;;;0.65;;
20476;SDS011;10397;50.948;11.092;2023-08-06T02:13:00;2.92;;;0.80;;
20476;SDS011;10397;50.948;11.092;2023-08-06T02:15:32;1.52;;;0.70;;
20476;SDS011;10397;50.948;11.092;2023-08-06T02:18:03;1.57;;;0.80;;
20476;SDS011;10397;50.948;11.092;2023-08-06T02:20:34;1.30;;;0.90;;
20476;SDS011;10397;50.948;11.092;2023-08-06T02:23:05;2.85;;;0.70;;
20476;SDS011;10397;50.948;11.092;2023-08-06T02:25:36;0.73;;;0.57;;
20476;SDS011;10397;50.948;11.092;2023-08-06T02:28:07;1.17;;;0.80;;
20476;SDS011;10397;50.948;11.092;2023-08-06T02:30:38;0.93;;;0.60;;
20476;SDS011;10397;50.948;11.092;2023-08-06T02:33:09;0.95;;;0.70;;
20476;SDS011;10397;50.948;11.092;2023-08-06T02:35:40;1.30;;;0.80;;
20476;SDS011;10397;50.948;11.092;2023-08-06T02:38:12;1.15;;;0.70;;
20476;SDS011;10397;50.948;11.092;2023-08-06T02:40:46;0.93;;;0.70;;
20476;SDS011;10397;50.948;11.092;2023-08-06T02:43:14;2.95;;;0.78;;
20476;SDS011;10397;50.948;11.092;2023-08-06T02:45:45;1.20;;;0.70;;
20476;SDS011;10397;50.948;11.092;2023-08-06T02:48:16;1.47;;;0.90;;
20476;SDS011;10397;50.948;11.092;2023-08-06T02:50:47;2.30;;;0.90;;
20476;SDS011;10397;50.948;11.092;2023-08-06T02:53:19;1.15;;;0.90;;
20476;SDS011;10397;50.948;11.092;2023-08-06T02:55:50;1.85;;;0.93;;
20476;SDS011;10397;50.948;11.092;2023-08-06T02:58:20;2.20;;;1.00;;
20476;SDS011;10397;50.948;11.092;2023-08-06T03:01:04;1.20;;;0.80;;
20476;SDS011;10397;50.948;11.092;2023-08-06T03:03:34;1.60;;;1.00;;
20476;SDS011;10397;50.948;11.092;2023-08-06T03:06:05;0.88;;;0.72;;
20476;SDS011;10397;50.948;11.092;2023-08-06T03:08:37;1.20;;;0.88;;
20476;SDS011;10397;50.948;11.092;2023-08-06T03:11:08;1.15;;;0.70;;
20476;SDS011;10397;50.948;11.092;2023-08-06T03:13:39;1.17;;;0.83;;
20476;SDS011;10397;50.948;11.092;2023-08-06T03:16:10;2.22;;;0.90;;
20476;SDS011;10397;50.948;11.092;2023-08-06T03:18:41;1.95;;;0.90;;
20476;SDS011;10397;50.948;11.092;2023-08-06T03:21:13;2.42;;;0.80;;
20476;SDS011;10397;50.948;11.092;2023-08-06T03:23:46;1.35;;;0.90;;
20476;SDS011;10397;50.948;11.092;2023-08-06T03:26:15;1.90;;;0.90;;
20476;SDS011;10397;50.948;11.092;2023-08-06T03:28:46;2.10;;;0.70;;
20476;SDS011;10397;50.948;11.092;2023-08-06T03:31:17;2.50;;;0.80;;
20476;SDS011;10397;50.948;11.092;2023-08-06T03:33:48;1.47;;;0.80;;
20476;SDS011;10397;50.948;11.092;2023-08-06T03:36:19;1.35;;;0.88;;
20476;SDS011;10397;50.948;11.092;2023-08-06T03:38:50;1.57;;;0.90;;
20476;SDS011;10397;50.948;11.092;2023-08-06T03:41:21;1.40;;;1.00;;
20476;SDS011;10397;50.948;11.092;2023-08-06T03:43:53;1.67;;;0.80;;
20476;SDS011;10397;50.948;11.092;2023-08-06T03:46:24;1.85;;;0.95;;
20476;SDS011;10397;50.948;11.092;2023-08-06T03:48:55;1.52;;;1.02;;
20476;SDS011;10397;50.948;11.092;2023-08-06T03:51:27;3.55;;;0.90;;
20476;SDS011;10397;50.948;11.092;2023-08-06T03:53:58;4.08;;;0.90;;
20476;SDS011;10397;50.948;11.092;2023-08-06T03:56:29;3.20;;;1.07;;
20476;SDS011;10397;50.948;11.092;2023-08-06T03:59:00;1.72;;;1.22;;
20476;SDS011;10397;50.948;11.092;2023-08-06T04:01:32;1.65;;;0.98;;
20476;SDS011;10397;50.948;11.092;2023-08-06T04:04:03;2.85;;;1.37;;
20476;SDS011;10397;50.948;11.092;2023-08-06T04:06:34;1.52;;;1.00;;
20476;SDS011;10397;50.948;11.092;2023-08-06T04:09:06;1.47;;;0.90;;
20476;SDS011;10397;50.948;11.092;2023-08-06T04:11:36;6.07;;;1.00;;
20476;SDS011;10397;50.948;11.092;2023-08-06T04:14:07;3.65;;;1.32;;
20476;SDS011;10397;50.948;11.092;2023-08-06T04:16:39;1.65;;;1.05;;
20476;SDS011;10397;50.948;11.092;2023-08-06T04:19:10;1.30;;;0.80;;
20476;SDS011;10397;50.948;11.092;2023-08-06T04:21:41;1.40;;;1.00;;
20476;SDS011;10397;50.948;11.092;2023-08-06T04:24:12;2.67;;;0.90;;
20476;SDS011;10397;50.948;11.092;2023-08-06T04:26:44;1.67;;;1.02;;
20476;SDS011;10397;50.948;11.092;2023-08-06T04:29:15;3.98;;;1.12;;
20476;SDS011;10397;50.948;11.092;2023-08-06T04:31:46;1.40;;;1.03;;
20476;SDS011;10397;50.948;11.092;2023-08-06T04:34:17;1.57;;;0.90;;
20476;SDS011;10397;50.948;11.092;2023-08-06T04:36:49;2.72;;;1.00;;
20476;SDS011;10397;50.948;11.092;2023-08-06T04:39:20;1.45;;;1.00;;
20476;SDS011;10397;50.948;11.092;2023-08-06T04:41:51;2.05;;;1.02;;
20476;SDS011;10397;50.948;11.092;2023-08-06T04:44:23;1.65;;;0.90;;
20476;SDS011;10397;50.948;11.092;2023-08-06T04:46:54;1.87;;;1.12;;
20476;SDS011;10397;50.948;11.092;2023-08-06T04:49:25;1.25;;;1.00;;
20476;SDS011;10397;50.948;11.092;2023-08-06T04:51:56;2.17;;;1.10;;
20476;SDS011;10397;50.948;11.092;2023-08-06T04:54:27;2.72;;;1.30;;
20476;SDS011;10397;50.948;11.092;2023-08-06T04:56:59;4.10;;;1.62;;
20476;SDS011;10397;50.948;11.092;2023-08-06T04:59:30;2.40;;;1.00;;
20476;SDS011;10397;50.948;11.092;2023-08-06T05:02:01;1.80;;;1.30;;
20476;SDS011;10397;50.948;11.092;2023-08-06T05:04:32;1.93;;;1.50;;
20476;SDS011;10397;50.948;11.092;2023-08-06T05:07:05;2.02;;;1.15;;
20476;SDS011;10397;50.948;11.092;2023-08-06T05:09:34;2.27;;;1.30;;
20476;SDS011;10397;50.948;11.092;2023-08-06T05:12:06;1.42;;;1.10;;
20476;SDS011;10397;50.948;11.092;2023-08-06T05:14:37;1.45;;;1.12;;
20476;SDS011;10397;50.948;11.092;2023-08-06T05:17:09;3.95;;;1.15;;
20476;SDS011;10397;50.948;11.092;2023-08-06T05:19:40;1.20;;;1.07;;
20476;SDS011;10397;50.948;11.092;2023-08-06T05:22:11;3.37;;;0.90;;
20476;SDS011;10397;50.948;11.092;2023-08-06T05:24:42;1.30;;;1.20;;
20476;SDS011;10397;50.948;11.092;2023-08-06T05:27:14;1.05;;;0.95;;
20476;SDS011;10397;50.948;11.092;2023-08-06T05:29:45;4.65;;;1.30;;
20476;SDS011;10397;50.948;11.092;2023-08-06T05:32:16;3.35;;;1.22;;
20476;SDS011;10397;50.948;11.092;2023-08-06T05:34:47;2.47;;;1.20;;
20476;SDS011;10397;50.948;11.092;2023-08-06T05:37:18;1.67;;;1.00;;
20476;SDS011;10397;50.948;11.092;2023-08-06T05:39:49;2.95;;;1.20;;
20476;SDS011;10397;50.948;11.092;2023-08-06T05:42:20;1.57;;;0.90;;
20476;SDS011;10397;50.948;11.092;2023-08-06T05:44:52;1.10;;;0.90;;
20476;SDS011;10397;50.948;11.092;2023-08-06T05:47:22;1.70;;;1.23;;
20476;SDS011;10397;50.948;11.092;2023-08-06T05:49:53;4.78;;;1.25;;
20476;SDS011;10397;50.948;11.092;2023-08-06T05:52:25;3.17;;;0.90;;
20476;SDS011;10397;50.948;11.092;2023-08-06T05:54:56;1.72;;;1.27;;
20476;SDS011;10397;50.948;11.092;2023-08-06T05:57:27;2.62;;;0.93;;
20476;SDS011;10397;50.948;11.092;2023-08-06T05:59:59;3.22;;;1.20;;
20476;SDS011;10397;50.948;11.092;2023-08-06T06:02:29;1.93;;;1.20;;
20476;SDS011;10397;50.948;11.092;2023-08-06T06:05:00;3.10;;;0.90;;
20476;SDS011;10397;50.948;11.092;2023-08-06T06:07:32;2.00;;;1.25;;
20476;SDS011;10397;50.948;11.092;2023-08-06T06:10:03;2.58;;;1.05;;
20476;SDS011;10397;50.948;11.092;2023-08-06T06:12:34;2.92;;;1.10;;
20476;SDS011;10397;50.948;11.092;2023-08-06T06:15:06;4.10;;;1.10;;
20476;SDS011;10397;50.948;11.092;2023-08-06T06:17:37;1.47;;;1.25;;
20476;SDS011;10397;50.948;11.092;2023-08-06T06:20:08;1.43;;;0.93;;
20476;SDS011;10397;50.948;11.092;2023-08-06T06:22:39;2.25;;;1.10;;
20476;SDS011;10397;50.948;11.092;2023-08-06T06:25:10;3.10;;;1.40;;
20476;SDS011;10397;50.948;11.092;2023-08-06T06:27:41;2.23;;;1.10;;
20476;SDS011;10397;50.948;11.092;2023-08-06T06:30:12;2.33;;;1.00;;
20476;SDS011;10397;50.948;11.092;2023-08-06T06:32:43;1.92;;;1.32;;
20476;SDS011;10397;50.948;11.092;2023-08-06T06:35:15;2.12;;;1.40;;
20476;SDS011;10397;50.948;11.092;2023-08-06T06:37:46;3.15;;;1.30;;
20476;SDS011;10397;50.948;11.092;2023-08-06T06:40:16;1.30;;;1.03;;
20476;SDS011;10397;50.948;11.092;2023-08-06T06:42:47;7.67;;;1.47;;
20476;SDS011;10397;50.948;11.092;2023-08-06T06:45:19;3.37;;;1.40;;
20476;SDS011;10397;50.948;11.092;2023-08-06T06:47:50;3.65;;;1.67;;
20476;SDS011;10397;50.948;11.092;2023-08-06T06:50:22;6.03;;;1.50;;
20476;SDS011;10397;50.948;11.092;2023-08-06T06:52:53;2.42;;;1.70;;
20476;SDS011;10397;50.948;11.092;2023-08-06T06:55:24;4.03;;;1.47;;
20476;SDS011;10397;50.948;11.092;2023-08-06T06:57:55;2.67;;;1.50;;
20476;SDS011;10397;50.948;11.092;2023-08-06T07:00:27;4.50;;;1.90;;
20476;SDS011;10397;50.948;11.092;2023-08-06T07:02:58;3.77;;;1.55;;
20476;SDS011;10397;50.948;11.092;2023-08-06T07:05:29;1.47;;;1.32;;
20476;SDS011;10397;50.948;11.092;2023-08-06T07:08:00;1.20;;;1.10;;
20476;SDS011;10397;50.948;11.092;2023-08-06T07:10:31;3.07;;;1.10;;
20476;SDS011;10397;50.948;11.092;2023-08-06T07:13:02;5.17;;;1.87;;
20476;SDS011;10397;50.948;11.092;2023-08-06T07:15:32;2.80;;;1.87;;
20476;SDS011;10397;50.948;11.092;2023-08-06T07:18:04;2.60;;;1.60;;
20476;SDS011;10397;50.948;11.092;2023-08-06T07:20:35;1.92;;;1.50;;
20476;SDS011;10397;50.948;11.092;2023-08-06T07:23:06;3.60;;;1.02;;
20476;SDS011;10397;50.948;11.092;2023-08-06T07:25:37;3.40;;;1.27;;
20476;SDS011;10397;50.948;11.092;2023-08-06T07:28:09;1.95;;;1.52;;
20476;SDS011;10397;50.948;11.092;2023-08-06T07:30:40;2.45;;;1.47;;
20476;SDS011;10397;50.948;11.092;2023-08-06T07:33:10;2.30;;;1.50;;
20476;SDS011;10397;50.948;11.092;2023-08-06T07:35:42;1.62;;;1.05;;
20476;SDS011;10397;50.948;11.092;2023-08-06T07:38:13;2.10;;;0.82;;
20476;SDS011;10397;50.948;11.092;2023-08-06T07:40:44;4.20;;;1.12;;
20476;SDS011;10397;50.948;11.092;2023-08-06T07:43:15;3.62;;;1.57;;
20476;SDS011;10397;50.948;11.092;2023-08-06T07:45:46;2.50;;;1.10;;
20476;SDS011;10397;50.948;11.092;2023-08-06T07:48:17;3.65;;;1.10;;
20476;SDS011;10397;50.948;11.092;2023-08-06T07:50:51;1.37;;;1.25;;
20476;SDS011;10397;50.948;11.092;2023-08-06T07:53:20;2.63;;;1.30;;
20476;SDS011;10397;50.948;11.092;2023-08-06T07:55:52;3.70;;;1.20;;
20476;SDS011;10397;50.948;11.092;2023-08-06T07:58:23;1.90;;;1.45;;
20476;SDS011;10397;50.948;11.092;2023-08-06T08:00:53;4.27;;;1.20;;
20476;SDS011;10397;50.948;11.092;2023-08-06T08:03:25;2.62;;;1.30;;
20476;SDS011;10397;50.948;11.092;2023-08-06T08:05:55;3.37;;;1.33;;
20476;SDS011;10397;50.948;11.092;2023-08-06T08:08:26;2.72;;;1.00;;
20476;SDS011;10397;50.948;11.092;2023-08-06T08:10:58;1.92;;;0.90;;
20476;SDS011;10397;50.948;11.092;2023-08-06T08:13:29;2.55;;;0.80;;
20476;SDS011;10397;50.948;11.092;2023-08-06T08:16:00;1.02;;;0.75;;
20476;SDS011;10397;50.948;11.092;2023-08-06T08:18:31;1.67;;;0.90;;
20476;SDS011;10397;50.948;11.092;2023-08-06T08:21:02;1.10;;;0.72;;
20476;SDS011;10397;50.948;11.092;2023-08-06T08:23:33;0.90;;;0.70;;
20476;SDS011;10397;50.948;11.092;2023-08-06T08:26:04;1.30;;;0.85;;
20476;SDS011;10397;50.948;11.092;2023-08-06T08:28:35;2.60;;;1.02;;
20476;SDS011;10397;50.948;11.092;2023-08-06T08:31:09;0.95;;;0.85;;
20476;SDS011;10397;50.948;11.092;2023-08-06T08:33:39;1.60;;;1.03;;
20476;SDS011;10397;50.948;11.092;2023-08-06T08:36:10;1.95;;;1.07;;
20476;SDS011;10397;50.948;11.092;2023-08-06T08:38:42;1.22;;;0.88;;
20476;SDS011;10397;50.948;11.092;2023-08-06T08:41:13;2.37;;;1.00;;
20476;SDS011;10397;50.948;11.092;2023-08-06T08:43:44;3.27;;;0.98;;
20476;SDS011;10397;50.948;11.092;2023-08-06T08:46:15;1.37;;;0.78;;
20476;SDS011;10397;50.948;11.092;2023-08-06T08:48:46;2.03;;;0.90;;
20476;SDS011;10397;50.948;11.092;2023-08-06T08:51:17;1.62;;;0.90;;
20476;SDS011;10397;50.948;11.092;2023-08-06T08:53:49;2.72;;;0.95;;
20476;SDS011;10397;50.948;11.092;2023-08-06T08:56:19;1.17;;;0.90;;
20476;SDS011;10397;50.948;11.092;2023-08-06T08:58:51;1.37;;;0.90;;
20476;SDS011;10397;50.948;11.092;2023-08-06T09:01:22;1.90;;;1.05;;
20476;SDS011;10397;50.948;11.092;2023-08-06T09:03:53;2.50;;;0.90;;
20476;SDS011;10397;50.948;11.092;2023-08-06T09:06:25;1.00;;;0.72;;
20476;SDS011;10397;50.948;11.092;2023-08-06T09:09:01;2.93;;;0.90;;
20476;SDS011;10397;50.948;11.092;2023-08-06T09:11:31;1.83;;;1.00;;
20476;SDS011;10397;50.948;11.092;2023-08-06T09:14:01;2.40;;;0.90;;
20476;SDS011;10397;50.948;11.092;2023-08-06T09:16:36;1.90;;;0.88;;
20476;SDS011;10397;50.948;11.092;2023-08-06T09:19:07;1.30;;;0.90;;
20476;SDS011;10397;50.948;11.092;2023-08-06T09:21:41;1.25;;;0.80;;
20476;SDS011;10397;50.948;11.092;2023-08-06T09:24:11;1.33;;;0.80;;
20476;SDS011;10397;50.948;11.092;2023-08-06T09:26:43;1.32;;;0.88;;
20476;SDS011;10397;50.948;11.092;2023-08-06T09:29:15;3.13;;;0.73;;
20476;SDS011;10397;50.948;11.092;2023-08-06T09:31:47;3.70;;;1.00;;
20476;SDS011;10397;50.948;11.092;2023-08-06T09:34:18;4.12;;;1.20;;
20476;SDS011;10397;50.948;11.092;2023-08-06T09:36:49;1.70;;;0.90;;
20476;SDS011;10397;50.948;11.092;2023-08-06T09:39:19;1.42;;;0.60;;
20476;SDS011;10397;50.948;11.092;2023-08-06T09:41:49;1.00;;;0.90;;
20476;SDS011;10397;50.948;11.092;2023-08-06T09:44:21;1.27;;;0.70;;
20476;SDS011;10397;50.948;11.092;2023-08-06T09:46:52;1.87;;;0.80;;
20476;SDS011;10397;50.948;11.092;2023-08-06T09:49:27;2.80;;;0.80;;
20476;SDS011;10397;50.948;11.092;2023-08-06T09:51:58;5.90;;;0.93;;
20476;SDS011;10397;50.948;11.092;2023-08-06T09:54:28;1.67;;;1.00;;
20476;SDS011;10397;50.948;11.092;2023-08-06T09:57:00;1.55;;;0.80;;
20476;SDS011;10397;50.948;11.092;2023-08-06T09:59:32;1.20;;;0.70;;
20476;SDS011;10397;50.948;11.092;2023-08-06T10:02:06;1.47;;;0.63;;
20476;SDS011;10397;50.948;11.092;2023-08-06T10:04:36;3.62;;;0.65;;
20476;SDS011;10397;50.948;11.092;2023-08-06T10:07:07;3.62;;;0.50;;
20476;SDS011;10397;50.948;11.092;2023-08-06T10:09:38;2.75;;;0.57;;
20476;SDS011;10397;50.948;11.092;2023-08-06T10:12:09;0.70;;;0.40;;
20476;SDS011;10397;50.948;11.092;2023-08-06T10:14:40;3.42;;;0.60;;
20476;SDS011;10397;50.948;11.092;2023-08-06T10:17:12;2.70;;;0.65;;
20476;SDS011;10397;50.948;11.092;2023-08-06T10:19:42;0.97;;;0.43;;
20476;SDS011;10397;50.948;11.092;2023-08-06T10:22:14;1.90;;;0.85;;
20476;SDS011;10397;50.948;11.092;2023-08-06T10:24:54;0.93;;;0.50;;
20476;SDS011;10397;50.948;11.092;2023-08-06T10:27:30;1.60;;;0.80;;
20476;SDS011;10397;50.948;11.092;2023-08-06T10:32:55;1.17;;;0.60;;
20476;SDS011;10397;50.948;11.092;2023-08-06T10:35:38;0.97;;;0.50;;
20476;SDS011;10397;50.948;11.092;2023-08-06T10:38:09;2.30;;;0.60;;
20476;SDS011;10397;50.948;11.092;2023-08-06T10:41:22;2.05;;;0.70;;
20476;SDS011;10397;50.948;11.092;2023-08-06T10:43:27;3.43;;;0.50;;
20476;SDS011;10397;50.948;11.092;2023-08-06T10:45:57;1.47;;;0.70;;
20476;SDS011;10397;50.948;11.092;2023-08-06T10:48:33;3.58;;;0.75;;
20476;SDS011;10397;50.948;11.092;2023-08-06T10:51:02;2.50;;;0.60;;
20476;SDS011;10397;50.948;11.092;2023-08-06T10:53:33;2.60;;;0.50;;
20476;SDS011;10397;50.948;11.092;2023-08-06T10:56:13;1.40;;;0.60;;
20476;SDS011;10397;50.948;11.092;2023-08-06T10:58:44;0.77;;;0.50;;
20476;SDS011;10397;50.948;11.092;2023-08-06T11:01:15;2.45;;;0.60;;
20476;SDS011;10397;50.948;11.092;2023-08-06T11:03:46;1.43;;;0.40;;
20476;SDS011;10397;50.948;11.092;2023-08-06T11:06:17;1.15;;;0.50;;
20476;SDS011;10397;50.948;11.092;2023-08-06T11:08:49;2.47;;;0.62;;
20476;SDS011;10397;50.948;11.092;2023-08-06T11:11:19;3.95;;;0.70;;
20476;SDS011;10397;50.948;11.092;2023-08-06T11:13:50;1.10;;;0.47;;
20476;SDS011;10397;50.948;11.092;2023-08-06T11:16:23;1.40;;;0.57;;
20476;SDS011;10397;50.948;11.092;2023-08-06T11:18:54;1.90;;;0.40;;
20476;SDS011;10397;50.948;11.092;2023-08-06T11:21:25;0.80;;;0.45;;
20476;SDS011;10397;50.948;11.092;2023-08-06T11:23:56;1.62;;;0.50;;
20476;SDS011;10397;50.948;11.092;2023-08-06T11:26:27;0.72;;;0.42;;
20476;SDS011;10397;50.948;11.092;2023-08-06T11:28:58;0.90;;;0.40;;
20476;SDS011;10397;50.948;11.092;2023-08-06T11:31:29;1.95;;;0.40;;
20476;SDS011;10397;50.948;11.092;2023-08-06T11:34:00;1.32;;;0.50;;
20476;SDS011;10397;50.948;11.092;2023-08-06T11:36:32;0.90;;;0.40;;
20476;SDS011;10397;50.948;11.092;2023-08-06T11:39:03;2.77;;;0.65;;
20476;SDS011;10397;50.948;11.092;2023-08-06T11:41:35;1.35;;;0.60;;
20476;SDS011;10397;50.948;11.092;2023-08-06T11:44:04;1.33;;;0.50;;
20476;SDS011;10397;50.948;11.092;2023-08-06T11:46:55;1.00;;;0.50;;
20476;SDS011;10397;50.948;11.092;2023-08-06T11:49:47;1.00;;;0.40;;
20476;SDS011;10397;50.948;11.092;2023-08-06T11:52:10;0.83;;;0.40;;
20476;SDS011;10397;50.948;11.092;2023-08-06T11:54:43;2.57;;;0.60;;
20476;SDS011;10397;50.948;11.092;2023-08-06T11:57:14;2.35;;;0.50;;
20476;SDS011;10397;50.948;11.092;2023-08-06T11:59:44;0.50;;;0.40;;
20476;SDS011;10397;50.948;11.092;2023-08-06T12:02:15;0.40;;;0.30;;
20476;SDS011;10397;50.948;11.092;2023-08-06T12:04:58;2.00;;;0.50;;
20476;SDS011;10397;50.948;11.092;2023-08-06T12:07:32;3.60;;;0.50;;
20476;SDS011;10397;50.948;11.092;2023-08-06T12:10:02;0.98;;;0.57;;
20476;SDS011;10397;50.948;11.092;2023-08-06T12:12:34;1.55;;;0.50;;
20476;SDS011;10397;50.948;11.092;2023-08-06T12:15:04;3.10;;;0.40;;
20476;SDS011;10397;50.948;11.092;2023-08-06T12:17:35;1.90;;;0.37;;
20476;SDS011;10397;50.948;11.092;2023-08-06T12:20:06;0.77;;;0.30;;
20476;SDS011;10397;50.948;11.092;2023-08-06T12:22:36;1.67;;;0.50;;
20476;SDS011;10397;50.948;11.092;2023-08-06T12:25:08;3.20;;;0.50;;
20476;SDS011;10397;50.948;11.092;2023-08-06T12:27:38;1.37;;;0.40;;
20476;SDS011;10397;50.948;11.092;2023-08-06T12:30:09;2.60;;;0.50;;
20476;SDS011;10397;50.948;11.092;2023-08-06T12:32:39;0.80;;;0.40;;
20476;SDS011;10397;50.948;11.092;2023-08-06T12:35:10;1.80;;;0.62;;
20476;SDS011;10397;50.948;11.092;2023-08-06T12:37:41;1.62;;;0.57;;
20476;SDS011;10397;50.948;11.092;2023-08-06T12:40:12;1.15;;;0.57;;
20476;SDS011;10397;50.948;11.092;2023-08-06T12:42:43;0.63;;;0.40;;
20476;SDS011;10397;50.948;11.092;2023-08-06T12:45:14;1.30;;;0.60;;
20476;SDS011;10397;50.948;11.092;2023-08-06T12:47:44;1.10;;;0.40;;
20476;SDS011;10397;50.948;11.092;2023-08-06T12:50:15;1.00;;;0.42;;
20476;SDS011;10397;50.948;11.092;2023-08-06T12:52:46;1.12;;;0.40;;
20476;SDS011;10397;50.948;11.092;2023-08-06T12:55:18;1.35;;;0.40;;
20476;SDS011;10397;50.948;11.092;2023-08-06T12:57:49;1.45;;;0.50;;
20476;SDS011;10397;50.948;11.092;2023-08-06T13:00:20;1.55;;;0.57;;
20476;SDS011;10397;50.948;11.092;2023-08-06T13:02:52;1.92;;;0.60;;
20476;SDS011;10397;50.948;11.092;2023-08-06T13:05:23;2.25;;;0.72;;
20476;SDS011;10397;50.948;11.092;2023-08-06T13:07:54;1.50;;;0.80;;
20476;SDS011;10397;50.948;11.092;2023-08-06T13:10:26;3.12;;;0.53;;
20476;SDS011;10397;50.948;11.092;2023-08-06T13:12:56;0.87;;;0.40;;
20476;SDS011;10397;50.948;11.092;2023-08-06T13:15:28;2.17;;;0.60;;
20476;SDS011;10397;50.948;11.092;2023-08-06T13:17:59;1.25;;;0.60;;
20476;SDS011;10397;50.948;11.092;2023-08-06T13:20:30;1.92;;;0.80;;
20476;SDS011;10397;50.948;11.092;2023-08-06T13:23:02;2.08;;;0.80;;
20476;SDS011;10397;50.948;11.092;2023-08-06T13:25:33;3.58;;;0.80;;
20476;SDS011;10397;50.948;11.092;2023-08-06T13:28:04;1.22;;;0.60;;
20476;SDS011;10397;50.948;11.092;2023-08-06T13:30:36;0.72;;;0.37;;
20476;SDS011;10397;50.948;11.092;2023-08-06T13:33:07;0.83;;;0.30;;
20476;SDS011;10397;50.948;11.092;2023-08-06T13:35:37;0.60;;;0.20;;
20476;SDS011;10397;50.948;11.092;2023-08-06T13:38:08;0.57;;;0.10;;
20476;SDS011;10397;50.948;11.092;2023-08-06T13:40:39;5.35;;;0.10;;
20476;SDS011;10397;50.948;11.092;2023-08-06T13:43:10;1.75;;;0.20;;
20476;SDS011;10397;50.948;11.092;2023-08-06T13:45:41;0.30;;;0.10;;
20476;SDS011;10397;50.948;11.092;2023-08-06T13:48:12;0.80;;;0.10;;
20476;SDS011;10397;50.948;11.092;2023-08-06T13:50:43;0.57;;;0.20;;
20476;SDS011;10397;50.948;11.092;2023-08-06T13:53:14;0.62;;;0.20;;
20476;SDS011;10397;50.948;11.092;2023-08-06T13:55:45;0.30;;;0.10;;
20476;SDS011;10397;50.948;11.092;2023-08-06T13:58:16;0.65;;;0.30;;
20476;SDS011;10397;50.948;11.092;2023-08-06T14:00:48;0.70;;;0.20;;
20476;SDS011;10397;50.948;11.092;2023-08-06T14:03:18;0.37;;;0.20;;
20476;SDS011;10397;50.948;11.092;2023-08-06T14:05:49;0.17;;;0.17;;
20476;SDS011;10397;50.948;11.092;2023-08-06T14:08:20;0.67;;;0.30;;
20476;SDS011;10397;50.948;11.092;2023-08-06T14:10:54;0.23;;;0.20;;
20476;SDS011;10397;50.948;11.092;2023-08-06T14:13:25;0.30;;;0.10;;
20476;SDS011;10397;50.948;11.092;2023-08-06T14:15:56;0.33;;;0.10;;
20476;SDS011;10397;50.948;11.092;2023-08-06T14:18:27;0.17;;;0.10;;
20476;SDS011;10397;50.948;11.092;2023-08-06T14:20:58;0.93;;;0.10;;
20476;SDS011;10397;50.948;11.092;2023-08-06T14:23:29;0.20;;;0.00;;
20476;SDS011;10397;50.948;11.092;2023-08-06T14:26:00;0.20;;;0.07;;
20476;SDS011;10397;50.948;11.092;2023-08-06T14:28:31;0.53;;;0.10;;
20476;SDS011;10397;50.948;11.092;2023-08-06T14:31:02;0.05;;;0.00;;
20476;SDS011;10397;50.948;11.092;2023-08-06T14:33:32;0.10;;;0.00;;
20476;SDS011;10397;50.948;11.092;2023-08-06T14:36:03;0.10;;;0.00;;
20476;SDS011;10397;50.948;11.092;2023-08-06T14:38:35;0.53;;;0.05;;
20476;SDS011;10397;50.948;11.092;2023-08-06T14:41:05;0.20;;;0.10;;
20476;SDS011;10397;50.948;11.092;2023-08-06T14:43:36;0.00;;;0.00;;
20476;SDS011;10397;50.948;11.092;2023-08-06T14:46:08;0.00;;;0.00;;
20476;SDS011;10397;50.948;11.092;2023-08-06T14:48:39;0.00;;;0.00;;
20476;SDS011;10397;50.948;11.092;2023-08-06T14:51:10;0.23;;;0.00;;
20476;SDS011;10397;50.948;11.092;2023-08-06T14:53:40;0.00;;;0.00;;
20476;SDS011;10397;50.948;11.092;2023-08-06T14:56:11;0.00;;;0.00;;
20476;SDS011;10397;50.948;11.092;2023-08-06T14:58:42;0.00;;;0.00;;
20476;SDS011;10397;50.948;11.092;2023-08-06T15:01:13;0.28;;;0.00;;
20476;SDS011;10397;50.948;11.092;2023-08-06T15:03:45;0.00;;;0.00;;
20476;SDS011;10397;50.948;11.092;2023-08-06T15:06:16;0.07;;;0.00;;
20476;SDS011;10397;50.948;11.092;2023-08-06T15:08:47;0.63;;;0.00;;